sensor_id;sensor_type;location;lat;lon;timestamp;P1;durP1;ratioP1;P2;durP2;ratioP2
6145;SDS011;3104;50.348;7.620;2023-07-31T00:00:42;4.00;;;2.57;;
6145;SDS011;3104;50.348;7.620;2023-07-31T00:03:08;3.90;;;2.80;;
6145;SDS011;3104;50.348;7.620;2023-07-31T00:05:35;3.23;;;2.40;;
6145;SDS011;3104;50.348;7.620;2023-07-31T00:08:00;2.80;;;2.43;;
6145;SDS011;3104;50.348;7.620;2023-07-31T00:10:26;6.27;;;2.90;;
6145;SDS011;3104;50.348;7.620;2023-07-31T00:12:51;2.50;;;2.30;;
6145;SDS011;3104;50.348;7.620;2023-07-31T00:15:17;2.80;;;2.43;;
6145;SDS011;3104;50.348;7.620;2023-07-31T00:17:42;2.97;;;2.57;;
6145;SDS011;3104;50.348;7.620;2023-07-31T00:20:08;3.77;;;2.47;;
6145;SDS011;3104;50.348;7.620;2023-07-31T00:22:35;5.50;;;2.80;;
6145;SDS011;3104;50.348;7.620;2023-07-31T00:25:01;5.90;;;3.10;;
6145;SDS011;3104;50.348;7.620;2023-07-31T00:27:27;5.03;;;2.80;;
6145;SDS011;3104;50.348;7.620;2023-07-31T00:29:52;4.10;;;2.30;;
6145;SDS011;3104;50.348;7.620;2023-07-31T00:32:18;3.10;;;2.60;;
6145;SDS011;3104;50.348;7.620;2023-07-31T00:34:43;3.93;;;2.13;;
6145;SDS011;3104;50.348;7.620;2023-07-31T00:37:09;5.10;;;2.20;;
6145;SDS011;3104;50.348;7.620;2023-07-31T00:39:34;2.97;;;2.20;;
6145;SDS011;3104;50.348;7.620;2023-07-31T00:42:00;2.90;;;2.57;;
6145;SDS011;3104;50.348;7.620;2023-07-31T00:44:26;3.40;;;2.70;;
6145;SDS011;3104;50.348;7.620;2023-07-31T00:46:52;3.60;;;2.27;;
6145;SDS011;3104;50.348;7.620;2023-07-31T00:49:19;5.10;;;2.80;;
6145;SDS011;3104;50.348;7.620;2023-07-31T00:51:46;4.20;;;2.87;;
6145;SDS011;3104;50.348;7.620;2023-07-31T00:54:11;10.20;;;4.27;;
6145;SDS011;3104;50.348;7.620;2023-07-31T00:56:37;4.10;;;2.80;;
6145;SDS011;3104;50.348;7.620;2023-07-31T00:59:03;5.30;;;3.47;;
6145;SDS011;3104;50.348;7.620;2023-07-31T01:01:29;3.77;;;2.30;;
6145;SDS011;3104;50.348;7.620;2023-07-31T01:03:54;2.80;;;2.53;;
6145;SDS011;3104;50.348;7.620;2023-07-31T01:08:54;6.80;;;2.50;;
6145;SDS011;3104;50.348;7.620;2023-07-31T01:11:28;3.10;;;2.43;;
6145;SDS011;3104;50.348;7.620;2023-07-31T01:13:55;6.27;;;3.03;;
6145;SDS011;3104;50.348;7.620;2023-07-31T01:16:22;2.63;;;2.43;;
6145;SDS011;3104;50.348;7.620;2023-07-31T01:18:47;3.43;;;2.43;;
6145;SDS011;3104;50.348;7.620;2023-07-31T01:21:19;3.00;;;2.70;;
6145;SDS011;3104;50.348;7.620;2023-07-31T01:26:58;4.97;;;3.17;;
6145;SDS011;3104;50.348;7.620;2023-07-31T01:32:14;3.47;;;3.00;;
6145;SDS011;3104;50.348;7.620;2023-07-31T01:34:42;5.17;;;2.93;;
6145;SDS011;3104;50.348;7.620;2023-07-31T01:37:09;4.33;;;2.73;;
6145;SDS011;3104;50.348;7.620;2023-07-31T01:39:34;4.60;;;2.60;;
6145;SDS011;3104;50.348;7.620;2023-07-31T01:42:00;4.73;;;2.90;;
6145;SDS011;3104;50.348;7.620;2023-07-31T01:44:26;2.63;;;2.43;;
6145;SDS011;3104;50.348;7.620;2023-07-31T01:46:51;3.73;;;2.37;;
6145;SDS011;3104;50.348;7.620;2023-07-31T01:49:17;3.97;;;3.30;;
6145;SDS011;3104;50.348;7.620;2023-07-31T01:51:42;4.17;;;2.40;;
6145;SDS011;3104;50.348;7.620;2023-07-31T01:54:08;4.10;;;3.80;;
6145;SDS011;3104;50.348;7.620;2023-07-31T01:56:33;4.30;;;2.63;;
6145;SDS011;3104;50.348;7.620;2023-07-31T01:58:59;4.03;;;2.80;;
6145;SDS011;3104;50.348;7.620;2023-07-31T02:01:25;4.77;;;3.10;;
6145;SDS011;3104;50.348;7.620;2023-07-31T02:03:50;5.07;;;3.00;;
6145;SDS011;3104;50.348;7.620;2023-07-31T02:06:16;3.00;;;2.80;;
6145;SDS011;3104;50.348;7.620;2023-07-31T02:08:41;4.50;;;3.20;;
6145;SDS011;3104;50.348;7.620;2023-07-31T02:11:07;4.57;;;3.17;;
6145;SDS011;3104;50.348;7.620;2023-07-31T02:13:32;3.53;;;3.00;;
6145;SDS011;3104;50.348;7.620;2023-07-31T02:15:58;3.23;;;2.93;;
6145;SDS011;3104;50.348;7.620;2023-07-31T02:18:23;8.27;;;2.80;;
6145;SDS011;3104;50.348;7.620;2023-07-31T02:20:50;5.90;;;3.17;;
6145;SDS011;3104;50.348;7.620;2023-07-31T02:23:16;6.63;;;3.93;;
6145;SDS011;3104;50.348;7.620;2023-07-31T02:25:43;4.73;;;2.80;;
6145;SDS011;3104;50.348;7.620;2023-07-31T02:28:08;4.40;;;2.97;;
6145;SDS011;3104;50.348;7.620;2023-07-31T02:30:34;6.00;;;3.30;;
6145;SDS011;3104;50.348;7.620;2023-07-31T02:32:59;3.03;;;2.83;;
6145;SDS011;3104;50.348;7.620;2023-07-31T02:35:25;2.73;;;2.53;;
6145;SDS011;3104;50.348;7.620;2023-07-31T02:37:50;4.43;;;3.00;;
6145;SDS011;3104;50.348;7.620;2023-07-31T02:40:16;3.93;;;3.20;;
6145;SDS011;3104;50.348;7.620;2023-07-31T02:42:42;3.47;;;3.17;;
6145;SDS011;3104;50.348;7.620;2023-07-31T02:45:07;5.00;;;3.50;;
6145;SDS011;3104;50.348;7.620;2023-07-31T02:47:33;3.07;;;2.77;;
6145;SDS011;3104;50.348;7.620;2023-07-31T02:49:59;7.63;;;3.00;;
6145;SDS011;3104;50.348;7.620;2023-07-31T02:52:25;4.23;;;2.80;;
6145;SDS011;3104;50.348;7.620;2023-07-31T02:54:51;6.27;;;3.67;;
6145;SDS011;3104;50.348;7.620;2023-07-31T02:57:16;3.07;;;2.60;;
6145;SDS011;3104;50.348;7.620;2023-07-31T02:59:42;3.10;;;2.80;;
6145;SDS011;3104;50.348;7.620;2023-07-31T03:02:08;5.37;;;3.23;;
6145;SDS011;3104;50.348;7.620;2023-07-31T03:04:33;4.70;;;2.80;;
6145;SDS011;3104;50.348;7.620;2023-07-31T03:06:59;4.23;;;3.83;;
6145;SDS011;3104;50.348;7.620;2023-07-31T03:09:24;2.97;;;2.70;;
6145;SDS011;3104;50.348;7.620;2023-07-31T03:11:50;2.47;;;2.27;;
6145;SDS011;3104;50.348;7.620;2023-07-31T03:14:15;3.13;;;2.83;;
6145;SDS011;3104;50.348;7.620;2023-07-31T03:16:41;4.93;;;2.90;;
6145;SDS011;3104;50.348;7.620;2023-07-31T03:19:06;4.07;;;3.07;;
6145;SDS011;3104;50.348;7.620;2023-07-31T03:21:32;3.30;;;3.00;;
6145;SDS011;3104;50.348;7.620;2023-07-31T03:23:57;6.73;;;3.60;;
6145;SDS011;3104;50.348;7.620;2023-07-31T03:26:23;4.43;;;3.00;;
6145;SDS011;3104;50.348;7.620;2023-07-31T03:28:48;3.40;;;2.67;;
6145;SDS011;3104;50.348;7.620;2023-07-31T03:31:14;4.03;;;2.70;;
6145;SDS011;3104;50.348;7.620;2023-07-31T03:33:40;2.87;;;2.20;;
6145;SDS011;3104;50.348;7.620;2023-07-31T03:36:05;4.47;;;2.60;;
6145;SDS011;3104;50.348;7.620;2023-07-31T03:38:31;2.23;;;2.10;;
6145;SDS011;3104;50.348;7.620;2023-07-31T03:40:56;4.80;;;2.50;;
6145;SDS011;3104;50.348;7.620;2023-07-31T03:43:23;2.70;;;2.50;;
6145;SDS011;3104;50.348;7.620;2023-07-31T03:45:50;3.27;;;2.97;;
6145;SDS011;3104;50.348;7.620;2023-07-31T03:48:15;6.63;;;3.50;;
6145;SDS011;3104;50.348;7.620;2023-07-31T03:50:41;3.17;;;2.97;;
6145;SDS011;3104;50.348;7.620;2023-07-31T03:53:07;4.43;;;2.80;;
6145;SDS011;3104;50.348;7.620;2023-07-31T03:55:32;2.93;;;2.60;;
6145;SDS011;3104;50.348;7.620;2023-07-31T03:57:58;3.10;;;2.60;;
6145;SDS011;3104;50.348;7.620;2023-07-31T04:00:25;3.37;;;3.07;;
6145;SDS011;3104;50.348;7.620;2023-07-31T04:02:52;3.07;;;2.60;;
6145;SDS011;3104;50.348;7.620;2023-07-31T04:05:17;3.40;;;3.10;;
6145;SDS011;3104;50.348;7.620;2023-07-31T04:07:43;3.30;;;3.00;;
6145;SDS011;3104;50.348;7.620;2023-07-31T04:10:09;3.60;;;2.90;;
6145;SDS011;3104;50.348;7.620;2023-07-31T04:12:35;4.30;;;2.73;;
6145;SDS011;3104;50.348;7.620;2023-07-31T04:15:00;4.40;;;3.80;;
6145;SDS011;3104;50.348;7.620;2023-07-31T04:17:26;2.87;;;2.67;;
6145;SDS011;3104;50.348;7.620;2023-07-31T04:19:51;2.50;;;2.30;;
6145;SDS011;3104;50.348;7.620;2023-07-31T04:22:17;5.43;;;2.00;;
6145;SDS011;3104;50.348;7.620;2023-07-31T04:24:42;3.37;;;3.07;;
6145;SDS011;3104;50.348;7.620;2023-07-31T04:27:08;3.53;;;2.63;;
6145;SDS011;3104;50.348;7.620;2023-07-31T04:29:34;4.00;;;2.50;;
6145;SDS011;3104;50.348;7.620;2023-07-31T04:31:59;3.10;;;2.23;;
6145;SDS011;3104;50.348;7.620;2023-07-31T04:34:25;8.27;;;2.60;;
6145;SDS011;3104;50.348;7.620;2023-07-31T04:36:51;3.00;;;2.63;;
6145;SDS011;3104;50.348;7.620;2023-07-31T04:39:17;2.83;;;2.60;;
6145;SDS011;3104;50.348;7.620;2023-07-31T04:41:44;2.70;;;2.43;;
6145;SDS011;3104;50.348;7.620;2023-07-31T04:44:09;4.33;;;2.80;;
6145;SDS011;3104;50.348;7.620;2023-07-31T04:46:36;4.50;;;3.57;;
6145;SDS011;3104;50.348;7.620;2023-07-31T04:49:02;11.13;;;2.90;;
6145;SDS011;3104;50.348;7.620;2023-07-31T04:51:28;2.73;;;2.53;;
6145;SDS011;3104;50.348;7.620;2023-07-31T04:53:53;3.87;;;2.70;;
6145;SDS011;3104;50.348;7.620;2023-07-31T04:56:19;3.00;;;2.70;;
6145;SDS011;3104;50.348;7.620;2023-07-31T04:58:44;6.30;;;2.57;;
6145;SDS011;3104;50.348;7.620;2023-07-31T05:01:10;3.43;;;2.60;;
6145;SDS011;3104;50.348;7.620;2023-07-31T05:03:35;3.80;;;2.90;;
6145;SDS011;3104;50.348;7.620;2023-07-31T05:06:01;3.70;;;2.73;;
6145;SDS011;3104;50.348;7.620;2023-07-31T05:08:26;3.23;;;2.17;;
6145;SDS011;3104;50.348;7.620;2023-07-31T05:10:52;2.83;;;2.63;;
6145;SDS011;3104;50.348;7.620;2023-07-31T05:13:17;2.67;;;2.47;;
6145;SDS011;3104;50.348;7.620;2023-07-31T05:15:43;3.17;;;2.80;;
6145;SDS011;3104;50.348;7.620;2023-07-31T05:18:08;5.10;;;2.67;;
6145;SDS011;3104;50.348;7.620;2023-07-31T05:20:34;2.60;;;2.10;;
6145;SDS011;3104;50.348;7.620;2023-07-31T05:23:00;5.97;;;2.63;;
6145;SDS011;3104;50.348;7.620;2023-07-31T05:25:25;3.17;;;2.63;;
6145;SDS011;3104;50.348;7.620;2023-07-31T05:27:51;4.33;;;2.83;;
6145;SDS011;3104;50.348;7.620;2023-07-31T05:30:16;4.50;;;2.73;;
6145;SDS011;3104;50.348;7.620;2023-07-31T05:32:42;4.17;;;3.00;;
6145;SDS011;3104;50.348;7.620;2023-07-31T05:35:07;3.33;;;3.03;;
6145;SDS011;3104;50.348;7.620;2023-07-31T05:37:34;3.70;;;2.90;;
6145;SDS011;3104;50.348;7.620;2023-07-31T05:39:59;3.23;;;2.93;;
6145;SDS011;3104;50.348;7.620;2023-07-31T05:42:25;2.73;;;2.47;;
6145;SDS011;3104;50.348;7.620;2023-07-31T05:44:50;4.10;;;3.67;;
6145;SDS011;3104;50.348;7.620;2023-07-31T05:47:16;4.93;;;3.27;;
6145;SDS011;3104;50.348;7.620;2023-07-31T05:49:41;3.70;;;2.80;;
6145;SDS011;3104;50.348;7.620;2023-07-31T05:52:07;3.73;;;3.17;;
6145;SDS011;3104;50.348;7.620;2023-07-31T05:54:33;3.97;;;2.57;;
6145;SDS011;3104;50.348;7.620;2023-07-31T05:56:58;2.93;;;2.53;;
6145;SDS011;3104;50.348;7.620;2023-07-31T05:59:24;4.70;;;3.00;;
6145;SDS011;3104;50.348;7.620;2023-07-31T06:01:49;3.73;;;3.33;;
6145;SDS011;3104;50.348;7.620;2023-07-31T06:04:15;5.60;;;3.80;;
6145;SDS011;3104;50.348;7.620;2023-07-31T06:06:41;3.50;;;2.77;;
6145;SDS011;3104;50.348;7.620;2023-07-31T06:09:06;4.23;;;3.27;;
6145;SDS011;3104;50.348;7.620;2023-07-31T06:11:32;4.10;;;3.80;;
6145;SDS011;3104;50.348;7.620;2023-07-31T06:13:58;6.03;;;4.70;;
6145;SDS011;3104;50.348;7.620;2023-07-31T06:16:24;2.80;;;2.60;;
6145;SDS011;3104;50.348;7.620;2023-07-31T06:18:50;5.10;;;3.20;;
6145;SDS011;3104;50.348;7.620;2023-07-31T06:21:16;5.47;;;3.17;;
6145;SDS011;3104;50.348;7.620;2023-07-31T06:23:41;3.53;;;3.23;;
6145;SDS011;3104;50.348;7.620;2023-07-31T06:26:07;7.90;;;3.20;;
6145;SDS011;3104;50.348;7.620;2023-07-31T06:28:33;6.17;;;3.37;;
6145;SDS011;3104;50.348;7.620;2023-07-31T06:30:59;7.00;;;3.53;;
6145;SDS011;3104;50.348;7.620;2023-07-31T06:33:25;3.80;;;2.97;;
6145;SDS011;3104;50.348;7.620;2023-07-31T06:35:51;4.93;;;3.63;;
6145;SDS011;3104;50.348;7.620;2023-07-31T06:38:22;5.13;;;3.97;;
6145;SDS011;3104;50.348;7.620;2023-07-31T06:40:49;4.97;;;3.70;;
6145;SDS011;3104;50.348;7.620;2023-07-31T06:43:15;3.83;;;3.43;;
6145;SDS011;3104;50.348;7.620;2023-07-31T06:45:40;9.20;;;3.00;;
6145;SDS011;3104;50.348;7.620;2023-07-31T06:48:06;4.70;;;3.60;;
6145;SDS011;3104;50.348;7.620;2023-07-31T06:50:32;4.23;;;3.47;;
6145;SDS011;3104;50.348;7.620;2023-07-31T06:52:57;6.20;;;3.47;;
6145;SDS011;3104;50.348;7.620;2023-07-31T06:55:24;9.07;;;3.97;;
6145;SDS011;3104;50.348;7.620;2023-07-31T06:57:50;5.13;;;3.43;;
6145;SDS011;3104;50.348;7.620;2023-07-31T07:00:18;5.73;;;3.30;;
6145;SDS011;3104;50.348;7.620;2023-07-31T07:02:44;3.80;;;3.50;;
6145;SDS011;3104;50.348;7.620;2023-07-31T07:05:12;4.47;;;3.70;;
6145;SDS011;3104;50.348;7.620;2023-07-31T07:07:38;5.50;;;3.40;;
6145;SDS011;3104;50.348;7.620;2023-07-31T07:10:03;5.80;;;3.10;;
6145;SDS011;3104;50.348;7.620;2023-07-31T07:12:30;6.97;;;3.53;;
6145;SDS011;3104;50.348;7.620;2023-07-31T07:14:56;8.07;;;3.50;;
6145;SDS011;3104;50.348;7.620;2023-07-31T07:17:25;8.87;;;3.83;;
6145;SDS011;3104;50.348;7.620;2023-07-31T07:19:52;5.33;;;3.40;;
6145;SDS011;3104;50.348;7.620;2023-07-31T07:22:18;4.17;;;3.43;;
6145;SDS011;3104;50.348;7.620;2023-07-31T07:24:44;5.03;;;4.20;;
6145;SDS011;3104;50.348;7.620;2023-07-31T07:27:09;6.00;;;4.53;;
6145;SDS011;3104;50.348;7.620;2023-07-31T07:29:35;4.97;;;4.53;;
6145;SDS011;3104;50.348;7.620;2023-07-31T07:32:01;6.30;;;3.97;;
6145;SDS011;3104;50.348;7.620;2023-07-31T07:34:27;5.73;;;4.33;;
6145;SDS011;3104;50.348;7.620;2023-07-31T07:36:53;4.70;;;3.47;;
6145;SDS011;3104;50.348;7.620;2023-07-31T07:39:19;9.57;;;3.73;;
6145;SDS011;3104;50.348;7.620;2023-07-31T07:41:45;5.97;;;3.30;;
6145;SDS011;3104;50.348;7.620;2023-07-31T07:44:11;4.40;;;3.00;;
6145;SDS011;3104;50.348;7.620;2023-07-31T07:46:37;6.13;;;3.87;;
6145;SDS011;3104;50.348;7.620;2023-07-31T07:49:03;4.60;;;3.73;;
6145;SDS011;3104;50.348;7.620;2023-07-31T07:51:29;5.33;;;4.50;;
6145;SDS011;3104;50.348;7.620;2023-07-31T07:53:56;6.20;;;3.40;;
6145;SDS011;3104;50.348;7.620;2023-07-31T07:56:25;5.33;;;3.73;;
6145;SDS011;3104;50.348;7.620;2023-07-31T07:58:51;4.60;;;4.10;;
6145;SDS011;3104;50.348;7.620;2023-07-31T08:01:18;4.10;;;3.33;;
6145;SDS011;3104;50.348;7.620;2023-07-31T08:03:43;5.10;;;3.87;;
6145;SDS011;3104;50.348;7.620;2023-07-31T08:06:09;5.20;;;4.20;;
6145;SDS011;3104;50.348;7.620;2023-07-31T08:08:35;3.97;;;3.23;;
6145;SDS011;3104;50.348;7.620;2023-07-31T08:11:01;3.87;;;3.57;;
6145;SDS011;3104;50.348;7.620;2023-07-31T08:13:27;5.83;;;3.53;;
6145;SDS011;3104;50.348;7.620;2023-07-31T08:15:53;5.57;;;3.27;;
6145;SDS011;3104;50.348;7.620;2023-07-31T08:18:18;4.53;;;3.97;;
6145;SDS011;3104;50.348;7.620;2023-07-31T08:20:45;6.87;;;4.27;;
6145;SDS011;3104;50.348;7.620;2023-07-31T08:23:10;3.90;;;3.50;;
6145;SDS011;3104;50.348;7.620;2023-07-31T08:25:36;6.73;;;4.30;;
6145;SDS011;3104;50.348;7.620;2023-07-31T08:28:02;6.40;;;3.87;;
6145;SDS011;3104;50.348;7.620;2023-07-31T08:30:28;5.77;;;3.90;;
6145;SDS011;3104;50.348;7.620;2023-07-31T08:32:54;5.07;;;3.90;;
6145;SDS011;3104;50.348;7.620;2023-07-31T08:35:19;5.33;;;4.00;;
6145;SDS011;3104;50.348;7.620;2023-07-31T08:37:45;5.00;;;3.60;;
6145;SDS011;3104;50.348;7.620;2023-07-31T08:40:10;6.07;;;3.97;;
6145;SDS011;3104;50.348;7.620;2023-07-31T08:42:46;5.40;;;4.07;;
6145;SDS011;3104;50.348;7.620;2023-07-31T08:45:17;5.30;;;3.70;;
6145;SDS011;3104;50.348;7.620;2023-07-31T08:47:48;5.83;;;3.83;;
6145;SDS011;3104;50.348;7.620;2023-07-31T08:50:15;4.50;;;3.43;;
6145;SDS011;3104;50.348;7.620;2023-07-31T08:52:43;5.90;;;4.40;;
6145;SDS011;3104;50.348;7.620;2023-07-31T08:55:09;5.83;;;4.30;;
6145;SDS011;3104;50.348;7.620;2023-07-31T08:57:35;5.53;;;3.90;;
6145;SDS011;3104;50.348;7.620;2023-07-31T09:00:03;6.20;;;4.03;;
6145;SDS011;3104;50.348;7.620;2023-07-31T09:02:53;5.87;;;3.90;;
6145;SDS011;3104;50.348;7.620;2023-07-31T09:05:16;5.27;;;3.47;;
6145;SDS011;3104;50.348;7.620;2023-07-31T09:07:42;4.27;;;3.37;;
6145;SDS011;3104;50.348;7.620;2023-07-31T09:10:11;4.23;;;3.60;;
6145;SDS011;3104;50.348;7.620;2023-07-31T09:12:37;6.53;;;4.40;;
6145;SDS011;3104;50.348;7.620;2023-07-31T09:15:04;6.87;;;3.77;;
6145;SDS011;3104;50.348;7.620;2023-07-31T09:17:34;6.00;;;3.47;;
6145;SDS011;3104;50.348;7.620;2023-07-31T09:20:15;6.60;;;3.53;;
6145;SDS011;3104;50.348;7.620;2023-07-31T09:22:46;5.10;;;4.70;;
6145;SDS011;3104;50.348;7.620;2023-07-31T09:25:16;6.13;;;4.40;;
6145;SDS011;3104;50.348;7.620;2023-07-31T09:28:02;7.03;;;3.90;;
6145;SDS011;3104;50.348;7.620;2023-07-31T09:30:29;4.43;;;3.40;;
6145;SDS011;3104;50.348;7.620;2023-07-31T09:33:02;6.80;;;3.90;;
6145;SDS011;3104;50.348;7.620;2023-07-31T09:35:31;5.90;;;3.40;;
6145;SDS011;3104;50.348;7.620;2023-07-31T09:37:59;5.37;;;3.70;;
6145;SDS011;3104;50.348;7.620;2023-07-31T09:40:26;5.17;;;3.93;;
6145;SDS011;3104;50.348;7.620;2023-07-31T09:42:57;3.97;;;3.60;;
6145;SDS011;3104;50.348;7.620;2023-07-31T09:45:24;3.20;;;2.90;;
6145;SDS011;3104;50.348;7.620;2023-07-31T09:47:51;3.40;;;3.10;;
6145;SDS011;3104;50.348;7.620;2023-07-31T09:50:17;3.33;;;2.70;;
6145;SDS011;3104;50.348;7.620;2023-07-31T09:52:45;3.43;;;3.13;;
6145;SDS011;3104;50.348;7.620;2023-07-31T09:55:10;5.30;;;3.33;;
6145;SDS011;3104;50.348;7.620;2023-07-31T09:57:38;4.43;;;3.20;;
6145;SDS011;3104;50.348;7.620;2023-07-31T10:00:06;6.67;;;4.10;;
6145;SDS011;3104;50.348;7.620;2023-07-31T10:02:34;5.33;;;3.37;;
6145;SDS011;3104;50.348;7.620;2023-07-31T10:05:02;3.47;;;3.17;;
6145;SDS011;3104;50.348;7.620;2023-07-31T10:07:28;8.40;;;3.63;;
6145;SDS011;3104;50.348;7.620;2023-07-31T10:09:57;3.57;;;3.20;;
6145;SDS011;3104;50.348;7.620;2023-07-31T10:12:25;5.70;;;3.10;;
6145;SDS011;3104;50.348;7.620;2023-07-31T10:14:53;3.93;;;3.57;;
6145;SDS011;3104;50.348;7.620;2023-07-31T10:17:20;3.60;;;2.97;;
6145;SDS011;3104;50.348;7.620;2023-07-31T10:19:47;4.60;;;3.20;;
6145;SDS011;3104;50.348;7.620;2023-07-31T10:22:14;5.77;;;3.33;;
6145;SDS011;3104;50.348;7.620;2023-07-31T10:24:39;3.53;;;2.87;;
6145;SDS011;3104;50.348;7.620;2023-07-31T10:27:07;5.50;;;3.07;;
6145;SDS011;3104;50.348;7.620;2023-07-31T10:29:34;5.30;;;2.80;;
6145;SDS011;3104;50.348;7.620;2023-07-31T10:32:01;4.90;;;4.43;;
6145;SDS011;3104;50.348;7.620;2023-07-31T10:34:31;3.50;;;3.20;;
6145;SDS011;3104;50.348;7.620;2023-07-31T10:40:06;5.43;;;2.87;;
6145;SDS011;3104;50.348;7.620;2023-07-31T10:42:46;3.83;;;2.57;;
6145;SDS011;3104;50.348;7.620;2023-07-31T10:45:58;5.83;;;3.20;;
6145;SDS011;3104;50.348;7.620;2023-07-31T10:48:07;3.43;;;2.30;;
6145;SDS011;3104;50.348;7.620;2023-07-31T10:50:38;4.87;;;2.83;;
6145;SDS011;3104;50.348;7.620;2023-07-31T10:53:21;3.23;;;3.00;;
6145;SDS011;3104;50.348;7.620;2023-07-31T10:55:49;4.50;;;2.70;;
6145;SDS011;3104;50.348;7.620;2023-07-31T10:58:18;3.67;;;2.70;;
6145;SDS011;3104;50.348;7.620;2023-07-31T11:00:47;4.60;;;3.07;;
6145;SDS011;3104;50.348;7.620;2023-07-31T11:11:11;6.27;;;2.90;;
6145;SDS011;3104;50.348;7.620;2023-07-31T11:16:15;3.40;;;2.53;;
6145;SDS011;3104;50.348;7.620;2023-07-31T11:18:43;3.30;;;3.00;;
6145;SDS011;3104;50.348;7.620;2023-07-31T11:21:13;3.13;;;2.90;;
6145;SDS011;3104;50.348;7.620;2023-07-31T11:23:50;3.33;;;3.13;;
6145;SDS011;3104;50.348;7.620;2023-07-31T11:26:20;4.20;;;2.80;;
6145;SDS011;3104;50.348;7.620;2023-07-31T11:28:48;3.70;;;3.03;;
6145;SDS011;3104;50.348;7.620;2023-07-31T11:31:14;3.63;;;2.70;;
6145;SDS011;3104;50.348;7.620;2023-07-31T11:33:40;4.67;;;2.50;;
6145;SDS011;3104;50.348;7.620;2023-07-31T11:36:05;4.07;;;2.50;;
6145;SDS011;3104;50.348;7.620;2023-07-31T11:38:32;3.27;;;2.17;;
6145;SDS011;3104;50.348;7.620;2023-07-31T11:41:02;2.90;;;2.43;;
6145;SDS011;3104;50.348;7.620;2023-07-31T11:43:29;3.47;;;2.90;;
6145;SDS011;3104;50.348;7.620;2023-07-31T11:45:58;3.80;;;2.23;;
6145;SDS011;3104;50.348;7.620;2023-07-31T11:48:31;3.17;;;2.93;;
6145;SDS011;3104;50.348;7.620;2023-07-31T11:51:00;2.93;;;2.57;;
6145;SDS011;3104;50.348;7.620;2023-07-31T11:55:57;3.93;;;2.30;;
6145;SDS011;3104;50.348;7.620;2023-07-31T11:58:24;5.60;;;3.20;;
6145;SDS011;3104;50.348;7.620;2023-07-31T12:00:50;2.73;;;2.30;;
6145;SDS011;3104;50.348;7.620;2023-07-31T12:03:16;2.23;;;2.03;;
6145;SDS011;3104;50.348;7.620;2023-07-31T12:05:43;2.40;;;2.20;;
6145;SDS011;3104;50.348;7.620;2023-07-31T12:08:09;2.43;;;2.27;;
6145;SDS011;3104;50.348;7.620;2023-07-31T12:10:36;1.93;;;1.80;;
6145;SDS011;3104;50.348;7.620;2023-07-31T12:13:09;3.80;;;2.30;;
6145;SDS011;3104;50.348;7.620;2023-07-31T12:15:42;4.40;;;2.30;;
6145;SDS011;3104;50.348;7.620;2023-07-31T12:18:21;1.93;;;1.83;;
6145;SDS011;3104;50.348;7.620;2023-07-31T12:20:48;3.30;;;2.60;;
6145;SDS011;3104;50.348;7.620;2023-07-31T12:23:20;3.10;;;2.33;;
6145;SDS011;3104;50.348;7.620;2023-07-31T12:28:41;2.67;;;2.47;;
6145;SDS011;3104;50.348;7.620;2023-07-31T12:31:09;3.13;;;2.60;;
6145;SDS011;3104;50.348;7.620;2023-07-31T12:33:37;2.97;;;2.33;;
6145;SDS011;3104;50.348;7.620;2023-07-31T12:36:06;3.10;;;2.80;;
6145;SDS011;3104;50.348;7.620;2023-07-31T12:38:36;6.93;;;2.87;;
6145;SDS011;3104;50.348;7.620;2023-07-31T12:41:01;3.50;;;2.40;;
6145;SDS011;3104;50.348;7.620;2023-07-31T12:43:27;3.87;;;2.30;;
6145;SDS011;3104;50.348;7.620;2023-07-31T12:45:53;5.23;;;2.63;;
6145;SDS011;3104;50.348;7.620;2023-07-31T12:48:20;3.57;;;3.03;;
6145;SDS011;3104;50.348;7.620;2023-07-31T12:50:45;5.07;;;3.03;;
6145;SDS011;3104;50.348;7.620;2023-07-31T12:53:11;4.30;;;2.90;;
6145;SDS011;3104;50.348;7.620;2023-07-31T12:55:36;4.53;;;2.37;;
6145;SDS011;3104;50.348;7.620;2023-07-31T12:58:02;3.87;;;3.20;;
6145;SDS011;3104;50.348;7.620;2023-07-31T13:00:28;3.80;;;2.80;;
6145;SDS011;3104;50.348;7.620;2023-07-31T13:02:54;3.70;;;2.30;;
6145;SDS011;3104;50.348;7.620;2023-07-31T13:05:19;4.07;;;2.90;;
6145;SDS011;3104;50.348;7.620;2023-07-31T13:07:45;3.00;;;2.70;;
6145;SDS011;3104;50.348;7.620;2023-07-31T13:10:11;3.13;;;2.43;;
6145;SDS011;3104;50.348;7.620;2023-07-31T13:12:37;2.90;;;2.10;;
6145;SDS011;3104;50.348;7.620;2023-07-31T13:15:05;2.90;;;2.70;;
6145;SDS011;3104;50.348;7.620;2023-07-31T13:17:32;2.00;;;1.83;;
6145;SDS011;3104;50.348;7.620;2023-07-31T13:19:58;5.60;;;2.63;;
6145;SDS011;3104;50.348;7.620;2023-07-31T13:22:24;3.90;;;2.50;;
6145;SDS011;3104;50.348;7.620;2023-07-31T13:24:49;3.77;;;1.97;;
6145;SDS011;3104;50.348;7.620;2023-07-31T13:27:15;3.10;;;2.50;;
6145;SDS011;3104;50.348;7.620;2023-07-31T13:29:45;5.07;;;2.23;;
6145;SDS011;3104;50.348;7.620;2023-07-31T13:32:11;3.17;;;2.50;;
6145;SDS011;3104;50.348;7.620;2023-07-31T13:34:37;2.63;;;1.67;;
6145;SDS011;3104;50.348;7.620;2023-07-31T13:37:03;2.27;;;2.07;;
6145;SDS011;3104;50.348;7.620;2023-07-31T13:39:30;2.67;;;1.73;;
6145;SDS011;3104;50.348;7.620;2023-07-31T13:41:56;2.90;;;2.00;;
6145;SDS011;3104;50.348;7.620;2023-07-31T13:44:22;2.57;;;2.27;;
6145;SDS011;3104;50.348;7.620;2023-07-31T13:46:47;3.03;;;2.03;;
6145;SDS011;3104;50.348;7.620;2023-07-31T13:49:13;2.30;;;2.10;;
6145;SDS011;3104;50.348;7.620;2023-07-31T13:51:39;3.30;;;2.00;;
6145;SDS011;3104;50.348;7.620;2023-07-31T13:54:04;2.07;;;1.87;;
6145;SDS011;3104;50.348;7.620;2023-07-31T13:56:31;2.53;;;2.30;;
6145;SDS011;3104;50.348;7.620;2023-07-31T13:58:57;2.20;;;2.00;;
6145;SDS011;3104;50.348;7.620;2023-07-31T14:01:23;1.80;;;1.70;;
6145;SDS011;3104;50.348;7.620;2023-07-31T14:03:49;3.10;;;1.93;;
6145;SDS011;3104;50.348;7.620;2023-07-31T14:06:14;1.70;;;1.60;;
6145;SDS011;3104;50.348;7.620;2023-07-31T14:08:40;2.07;;;1.90;;
6145;SDS011;3104;50.348;7.620;2023-07-31T14:11:05;2.03;;;1.93;;
6145;SDS011;3104;50.348;7.620;2023-07-31T14:13:31;1.83;;;1.73;;
6145;SDS011;3104;50.348;7.620;2023-07-31T14:15:57;3.27;;;1.80;;
6145;SDS011;3104;50.348;7.620;2023-07-31T14:18:22;5.00;;;1.80;;
6145;SDS011;3104;50.348;7.620;2023-07-31T14:20:48;2.47;;;2.30;;
6145;SDS011;3104;50.348;7.620;2023-07-31T14:23:13;2.17;;;1.90;;
6145;SDS011;3104;50.348;7.620;2023-07-31T14:25:40;2.03;;;1.83;;
6145;SDS011;3104;50.348;7.620;2023-07-31T14:28:06;5.77;;;2.07;;
6145;SDS011;3104;50.348;7.620;2023-07-31T14:30:31;2.50;;;2.10;;
6145;SDS011;3104;50.348;7.620;2023-07-31T14:32:57;2.50;;;1.87;;
6145;SDS011;3104;50.348;7.620;2023-07-31T14:35:23;3.07;;;2.40;;
6145;SDS011;3104;50.348;7.620;2023-07-31T14:37:48;2.90;;;2.53;;
6145;SDS011;3104;50.348;7.620;2023-07-31T14:40:14;2.80;;;2.20;;
6145;SDS011;3104;50.348;7.620;2023-07-31T14:42:40;1.60;;;1.50;;
6145;SDS011;3104;50.348;7.620;2023-07-31T14:45:06;2.47;;;2.27;;
6145;SDS011;3104;50.348;7.620;2023-07-31T14:47:32;3.10;;;2.80;;
6145;SDS011;3104;50.348;7.620;2023-07-31T14:49:59;6.00;;;3.80;;
6145;SDS011;3104;50.348;7.620;2023-07-31T14:52:25;2.73;;;2.20;;
6145;SDS011;3104;50.348;7.620;2023-07-31T14:54:51;2.17;;;1.63;;
6145;SDS011;3104;50.348;7.620;2023-07-31T14:57:17;2.70;;;2.50;;
6145;SDS011;3104;50.348;7.620;2023-07-31T14:59:43;2.13;;;2.03;;
6145;SDS011;3104;50.348;7.620;2023-07-31T15:02:09;2.20;;;2.00;;
6145;SDS011;3104;50.348;7.620;2023-07-31T15:04:35;2.30;;;1.90;;
6145;SDS011;3104;50.348;7.620;2023-07-31T15:07:01;3.17;;;2.00;;
6145;SDS011;3104;50.348;7.620;2023-07-31T15:09:26;2.57;;;2.37;;
6145;SDS011;3104;50.348;7.620;2023-07-31T15:11:52;2.43;;;2.20;;
6145;SDS011;3104;50.348;7.620;2023-07-31T15:14:18;2.10;;;1.90;;
6145;SDS011;3104;50.348;7.620;2023-07-31T15:16:44;2.60;;;2.40;;
6145;SDS011;3104;50.348;7.620;2023-07-31T15:19:09;5.60;;;2.40;;
6145;SDS011;3104;50.348;7.620;2023-07-31T15:21:35;3.70;;;2.37;;
6145;SDS011;3104;50.348;7.620;2023-07-31T15:24:02;2.60;;;2.40;;
6145;SDS011;3104;50.348;7.620;2023-07-31T15:26:27;3.47;;;2.90;;
6145;SDS011;3104;50.348;7.620;2023-07-31T15:28:57;4.00;;;2.27;;
6145;SDS011;3104;50.348;7.620;2023-07-31T15:31:27;2.30;;;2.10;;
6145;SDS011;3104;50.348;7.620;2023-07-31T15:33:53;3.40;;;2.60;;
6145;SDS011;3104;50.348;7.620;2023-07-31T15:36:19;3.67;;;2.63;;
6145;SDS011;3104;50.348;7.620;2023-07-31T15:38:44;2.47;;;2.20;;